sensor_id;sensor_type;location;lat;lon;timestamp;P1;durP1;ratioP1;P2;durP2;ratioP2
2446;SDS011;26430;48.818;9.244;2023-09-07T00:00:29;4.88;;;0.90;;
2446;SDS011;26430;48.818;9.244;2023-09-07T00:02:55;4.90;;;1.00;;
2446;SDS011;26430;48.818;9.244;2023-09-07T00:05:20;4.87;;;0.90;;
2446;SDS011;26430;48.818;9.244;2023-09-07T00:07:46;4.90;;;1.00;;
2446;SDS011;26430;48.818;9.244;2023-09-07T00:10:11;4.87;;;0.90;;
2446;SDS011;26430;48.818;9.244;2023-09-07T00:12:37;4.82;;;0.80;;
2446;SDS011;26430;48.818;9.244;2023-09-07T00:15:04;4.88;;;1.00;;
2446;SDS011;26430;48.818;9.244;2023-09-07T00:17:31;4.85;;;0.80;;
2446;SDS011;26430;48.818;9.244;2023-09-07T00:19:57;4.83;;;1.00;;
2446;SDS011;26430;48.818;9.244;2023-09-07T00:22:23;4.93;;;1.13;;
2446;SDS011;26430;48.818;9.244;2023-09-07T00:24:50;4.88;;;0.90;;
2446;SDS011;26430;48.818;9.244;2023-09-07T00:27:16;4.90;;;1.00;;
2446;SDS011;26430;48.818;9.244;2023-09-07T00:29:42;4.83;;;0.90;;
2446;SDS011;26430;48.818;9.244;2023-09-07T00:32:07;4.83;;;0.90;;
2446;SDS011;26430;48.818;9.244;2023-09-07T00:34:34;4.85;;;0.85;;
2446;SDS011;26430;48.818;9.244;2023-09-07T00:37:00;4.90;;;0.90;;
2446;SDS011;26430;48.818;9.244;2023-09-07T00:39:25;4.88;;;0.90;;
2446;SDS011;26430;48.818;9.244;2023-09-07T00:41:51;4.87;;;0.90;;
2446;SDS011;26430;48.818;9.244;2023-09-07T00:44:17;4.90;;;0.90;;
2446;SDS011;26430;48.818;9.244;2023-09-07T00:46:42;4.90;;;1.00;;
2446;SDS011;26430;48.818;9.244;2023-09-07T00:49:11;4.93;;;1.00;;
2446;SDS011;26430;48.818;9.244;2023-09-07T00:51:37;4.90;;;0.90;;
2446;SDS011;26430;48.818;9.244;2023-09-07T00:54:03;4.90;;;1.00;;
2446;SDS011;26430;48.818;9.244;2023-09-07T00:56:28;4.87;;;0.90;;
2446;SDS011;26430;48.818;9.244;2023-09-07T00:58:55;4.88;;;0.90;;
2446;SDS011;26430;48.818;9.244;2023-09-07T01:01:22;4.90;;;0.90;;
2446;SDS011;26430;48.818;9.244;2023-09-07T01:03:48;4.90;;;0.90;;
2446;SDS011;26430;48.818;9.244;2023-09-07T01:08:58;4.90;;;1.00;;
2446;SDS011;26430;48.818;9.244;2023-09-07T01:11:35;4.85;;;0.88;;
2446;SDS011;26430;48.818;9.244;2023-09-07T01:14:02;4.90;;;1.00;;
2446;SDS011;26430;48.818;9.244;2023-09-07T01:16:29;4.90;;;1.00;;
2446;SDS011;26430;48.818;9.244;2023-09-07T01:18:55;4.88;;;1.00;;
2446;SDS011;26430;48.818;9.244;2023-09-07T01:21:22;4.88;;;0.95;;
2446;SDS011;26430;48.818;9.244;2023-09-07T01:23:48;4.90;;;1.00;;
2446;SDS011;26430;48.818;9.244;2023-09-07T01:26:15;4.88;;;0.90;;
2446;SDS011;26430;48.818;9.244;2023-09-07T01:28:41;4.90;;;1.00;;
2446;SDS011;26430;48.818;9.244;2023-09-07T01:31:07;4.90;;;1.00;;
2446;SDS011;26430;48.818;9.244;2023-09-07T01:33:32;4.90;;;0.97;;
2446;SDS011;26430;48.818;9.244;2023-09-07T01:35:58;4.90;;;0.90;;
2446;SDS011;26430;48.818;9.244;2023-09-07T01:38:24;4.90;;;1.00;;
2446;SDS011;26430;48.818;9.244;2023-09-07T01:40:49;4.87;;;1.00;;
2446;SDS011;26430;48.818;9.244;2023-09-07T01:43:15;4.90;;;0.90;;
2446;SDS011;26430;48.818;9.244;2023-09-07T01:45:40;4.90;;;1.00;;
2446;SDS011;26430;48.818;9.244;2023-09-07T01:48:08;4.90;;;0.93;;
2446;SDS011;26430;48.818;9.244;2023-09-07T01:50:37;4.90;;;0.90;;
2446;SDS011;26430;48.818;9.244;2023-09-07T01:53:02;4.93;;;1.00;;
2446;SDS011;26430;48.818;9.244;2023-09-07T01:55:29;4.93;;;0.90;;
2446;SDS011;26430;48.818;9.244;2023-09-07T01:57:55;4.90;;;1.00;;
2446;SDS011;26430;48.818;9.244;2023-09-07T02:00:21;4.90;;;0.90;;
2446;SDS011;26430;48.818;9.244;2023-09-07T02:02:46;4.90;;;0.90;;
2446;SDS011;26430;48.818;9.244;2023-09-07T02:05:12;4.90;;;0.90;;
2446;SDS011;26430;48.818;9.244;2023-09-07T02:07:37;4.90;;;0.90;;
2446;SDS011;26430;48.818;9.244;2023-09-07T02:10:03;4.90;;;0.93;;
2446;SDS011;26430;48.818;9.244;2023-09-07T02:12:30;4.90;;;1.00;;
2446;SDS011;26430;48.818;9.244;2023-09-07T02:14:55;6.07;;;4.60;;
2446;SDS011;26430;48.818;9.244;2023-09-07T02:17:21;4.90;;;0.90;;
2446;SDS011;26430;48.818;9.244;2023-09-07T02:19:47;4.90;;;0.93;;
2446;SDS011;26430;48.818;9.244;2023-09-07T02:22:12;4.90;;;0.90;;
2446;SDS011;26430;48.818;9.244;2023-09-07T02:24:38;4.93;;;1.00;;
2446;SDS011;26430;48.818;9.244;2023-09-07T02:27:03;4.90;;;0.90;;
2446;SDS011;26430;48.818;9.244;2023-09-07T02:29:29;4.90;;;0.97;;
2446;SDS011;26430;48.818;9.244;2023-09-07T02:31:54;4.90;;;0.90;;
2446;SDS011;26430;48.818;9.244;2023-09-07T02:34:21;4.93;;;0.93;;
2446;SDS011;26430;48.818;9.244;2023-09-07T02:36:47;4.90;;;0.90;;
2446;SDS011;26430;48.818;9.244;2023-09-07T02:39:12;4.97;;;1.00;;
2446;SDS011;26430;48.818;9.244;2023-09-07T02:41:38;4.90;;;0.90;;
2446;SDS011;26430;48.818;9.244;2023-09-07T02:44:04;4.90;;;0.90;;
2446;SDS011;26430;48.818;9.244;2023-09-07T02:46:30;4.90;;;0.90;;
2446;SDS011;26430;48.818;9.244;2023-09-07T02:48:58;4.90;;;0.80;;
2446;SDS011;26430;48.818;9.244;2023-09-07T02:51:24;5.00;;;1.10;;
2446;SDS011;26430;48.818;9.244;2023-09-07T02:53:50;4.95;;;0.95;;
2446;SDS011;26430;48.818;9.244;2023-09-07T02:56:16;4.93;;;0.90;;
2446;SDS011;26430;48.818;9.244;2023-09-07T02:58:42;4.90;;;0.90;;
2446;SDS011;26430;48.818;9.244;2023-09-07T03:01:08;4.90;;;0.90;;
2446;SDS011;26430;48.818;9.244;2023-09-07T03:03:38;4.93;;;0.90;;
2446;SDS011;26430;48.818;9.244;2023-09-07T03:06:09;4.85;;;0.90;;
2446;SDS011;26430;48.818;9.244;2023-09-07T03:08:36;4.93;;;1.00;;
2446;SDS011;26430;48.818;9.244;2023-09-07T03:11:03;4.90;;;0.90;;
2446;SDS011;26430;48.818;9.244;2023-09-07T03:13:29;5.05;;;1.00;;
2446;SDS011;26430;48.818;9.244;2023-09-07T03:15:55;4.93;;;1.00;;
2446;SDS011;26430;48.818;9.244;2023-09-07T03:18:21;5.00;;;1.00;;
2446;SDS011;26430;48.818;9.244;2023-09-07T03:20:46;4.90;;;0.90;;
2446;SDS011;26430;48.818;9.244;2023-09-07T03:23:12;4.93;;;0.90;;
2446;SDS011;26430;48.818;9.244;2023-09-07T03:25:38;4.90;;;0.90;;
2446;SDS011;26430;48.818;9.244;2023-09-07T03:28:03;4.93;;;1.00;;
2446;SDS011;26430;48.818;9.244;2023-09-07T03:30:29;4.93;;;0.87;;
2446;SDS011;26430;48.818;9.244;2023-09-07T03:32:55;4.93;;;0.90;;
2446;SDS011;26430;48.818;9.244;2023-09-07T03:35:20;5.00;;;1.00;;
2446;SDS011;26430;48.818;9.244;2023-09-07T03:37:46;4.90;;;0.90;;
2446;SDS011;26430;48.818;9.244;2023-09-07T03:40:12;4.87;;;0.90;;
2446;SDS011;26430;48.818;9.244;2023-09-07T03:42:38;4.80;;;0.90;;
2446;SDS011;26430;48.818;9.244;2023-09-07T03:45:04;4.95;;;0.90;;
2446;SDS011;26430;48.818;9.244;2023-09-07T03:47:30;4.95;;;1.00;;
2446;SDS011;26430;48.818;9.244;2023-09-07T03:49:56;4.90;;;0.90;;
2446;SDS011;26430;48.818;9.244;2023-09-07T03:52:22;4.90;;;0.80;;
2446;SDS011;26430;48.818;9.244;2023-09-07T03:54:51;4.90;;;1.00;;
2446;SDS011;26430;48.818;9.244;2023-09-07T03:57:19;4.95;;;0.93;;
2446;SDS011;26430;48.818;9.244;2023-09-07T03:59:45;4.95;;;0.90;;
2446;SDS011;26430;48.818;9.244;2023-09-07T04:02:11;5.00;;;1.20;;
2446;SDS011;26430;48.818;9.244;2023-09-07T04:04:37;4.90;;;1.00;;
2446;SDS011;26430;48.818;9.244;2023-09-07T04:07:03;4.87;;;0.90;;
2446;SDS011;26430;48.818;9.244;2023-09-07T04:09:29;4.87;;;0.80;;
2446;SDS011;26430;48.818;9.244;2023-09-07T04:11:54;4.83;;;0.87;;
2446;SDS011;26430;48.818;9.244;2023-09-07T04:14:20;4.90;;;0.87;;
2446;SDS011;26430;48.818;9.244;2023-09-07T04:16:45;4.90;;;0.90;;
2446;SDS011;26430;48.818;9.244;2023-09-07T04:19:11;4.87;;;0.87;;
2446;SDS011;26430;48.818;9.244;2023-09-07T04:21:37;4.90;;;0.90;;
2446;SDS011;26430;48.818;9.244;2023-09-07T04:24:03;4.93;;;0.90;;
2446;SDS011;26430;48.818;9.244;2023-09-07T04:26:29;4.93;;;0.95;;
2446;SDS011;26430;48.818;9.244;2023-09-07T04:28:55;4.90;;;0.90;;
2446;SDS011;26430;48.818;9.244;2023-09-07T04:31:21;4.90;;;0.90;;
2446;SDS011;26430;48.818;9.244;2023-09-07T04:33:46;4.90;;;0.90;;
2446;SDS011;26430;48.818;9.244;2023-09-07T04:36:13;4.80;;;0.90;;
2446;SDS011;26430;48.818;9.244;2023-09-07T04:38:39;4.90;;;0.90;;
2446;SDS011;26430;48.818;9.244;2023-09-07T04:41:09;4.90;;;0.80;;
2446;SDS011;26430;48.818;9.244;2023-09-07T04:43:36;4.82;;;0.80;;
2446;SDS011;26430;48.818;9.244;2023-09-07T04:46:05;4.95;;;0.90;;
2446;SDS011;26430;48.818;9.244;2023-09-07T04:48:31;4.97;;;0.90;;
2446;SDS011;26430;48.818;9.244;2023-09-07T04:50:57;4.90;;;0.90;;
2446;SDS011;26430;48.818;9.244;2023-09-07T04:53:30;4.93;;;0.80;;
2446;SDS011;26430;48.818;9.244;2023-09-07T04:55:57;4.93;;;0.90;;
2446;SDS011;26430;48.818;9.244;2023-09-07T04:58:23;4.90;;;0.90;;
2446;SDS011;26430;48.818;9.244;2023-09-07T05:00:49;4.90;;;0.90;;
2446;SDS011;26430;48.818;9.244;2023-09-07T05:03:14;4.90;;;0.90;;
2446;SDS011;26430;48.818;9.244;2023-09-07T05:05:42;4.90;;;1.00;;
2446;SDS011;26430;48.818;9.244;2023-09-07T05:08:09;4.82;;;0.90;;
2446;SDS011;26430;48.818;9.244;2023-09-07T05:10:35;4.90;;;1.05;;
2446;SDS011;26430;48.818;9.244;2023-09-07T05:13:01;4.85;;;0.90;;
2446;SDS011;26430;48.818;9.244;2023-09-07T05:15:27;4.77;;;0.90;;
2446;SDS011;26430;48.818;9.244;2023-09-07T05:17:52;4.87;;;0.87;;
2446;SDS011;26430;48.818;9.244;2023-09-07T05:20:18;4.82;;;0.90;;
2446;SDS011;26430;48.818;9.244;2023-09-07T05:22:44;4.90;;;1.00;;
2446;SDS011;26430;48.818;9.244;2023-09-07T05:25:10;4.80;;;0.90;;
2446;SDS011;26430;48.818;9.244;2023-09-07T05:27:37;4.88;;;0.90;;
2446;SDS011;26430;48.818;9.244;2023-09-07T05:30:03;4.90;;;1.00;;
2446;SDS011;26430;48.818;9.244;2023-09-07T05:32:29;4.88;;;0.93;;
2446;SDS011;26430;48.818;9.244;2023-09-07T05:34:55;4.77;;;0.90;;
2446;SDS011;26430;48.818;9.244;2023-09-07T05:37:20;4.90;;;0.90;;
2446;SDS011;26430;48.818;9.244;2023-09-07T05:39:46;4.80;;;0.90;;
2446;SDS011;26430;48.818;9.244;2023-09-07T05:42:12;4.90;;;0.90;;
2446;SDS011;26430;48.818;9.244;2023-09-07T05:44:38;4.90;;;0.90;;
2446;SDS011;26430;48.818;9.244;2023-09-07T05:47:03;4.90;;;1.00;;
2446;SDS011;26430;48.818;9.244;2023-09-07T05:49:29;4.82;;;0.90;;
2446;SDS011;26430;48.818;9.244;2023-09-07T05:51:55;4.80;;;0.90;;
2446;SDS011;26430;48.818;9.244;2023-09-07T05:54:21;4.83;;;0.93;;
2446;SDS011;26430;48.818;9.244;2023-09-07T05:56:47;4.87;;;0.90;;
2446;SDS011;26430;48.818;9.244;2023-09-07T05:59:12;4.87;;;0.90;;
2446;SDS011;26430;48.818;9.244;2023-09-07T06:01:38;4.77;;;0.90;;
2446;SDS011;26430;48.818;9.244;2023-09-07T06:04:04;4.82;;;0.90;;
2446;SDS011;26430;48.818;9.244;2023-09-07T06:06:31;4.88;;;0.90;;
2446;SDS011;26430;48.818;9.244;2023-09-07T06:08:56;4.80;;;0.90;;
2446;SDS011;26430;48.818;9.244;2023-09-07T06:11:24;4.80;;;0.90;;
2446;SDS011;26430;48.818;9.244;2023-09-07T06:13:49;4.80;;;0.80;;
2446;SDS011;26430;48.818;9.244;2023-09-07T06:16:15;4.83;;;0.90;;
2446;SDS011;26430;48.818;9.244;2023-09-07T06:18:41;4.90;;;0.90;;
2446;SDS011;26430;48.818;9.244;2023-09-07T06:21:06;4.80;;;0.90;;
2446;SDS011;26430;48.818;9.244;2023-09-07T06:23:32;4.83;;;0.97;;
2446;SDS011;26430;48.818;9.244;2023-09-07T06:25:57;4.83;;;0.90;;
2446;SDS011;26430;48.818;9.244;2023-09-07T06:28:23;4.83;;;0.90;;
2446;SDS011;26430;48.818;9.244;2023-09-07T06:30:48;4.83;;;1.00;;
2446;SDS011;26430;48.818;9.244;2023-09-07T06:33:14;4.87;;;1.00;;
2446;SDS011;26430;48.818;9.244;2023-09-07T06:35:40;4.80;;;0.80;;
2446;SDS011;26430;48.818;9.244;2023-09-07T06:38:05;4.83;;;0.87;;
2446;SDS011;26430;48.818;9.244;2023-09-07T06:40:31;4.90;;;1.00;;
2446;SDS011;26430;48.818;9.244;2023-09-07T06:42:56;4.87;;;0.90;;
2446;SDS011;26430;48.818;9.244;2023-09-07T06:45:22;4.87;;;1.00;;
2446;SDS011;26430;48.818;9.244;2023-09-07T06:47:51;4.90;;;0.90;;
2446;SDS011;26430;48.818;9.244;2023-09-07T06:50:16;4.83;;;0.90;;
2446;SDS011;26430;48.818;9.244;2023-09-07T06:52:42;4.83;;;0.90;;
2446;SDS011;26430;48.818;9.244;2023-09-07T06:55:07;4.80;;;0.90;;
2446;SDS011;26430;48.818;9.244;2023-09-07T06:57:33;4.80;;;0.90;;
2446;SDS011;26430;48.818;9.244;2023-09-07T06:59:59;4.80;;;0.90;;
2446;SDS011;26430;48.818;9.244;2023-09-07T07:02:24;4.80;;;0.90;;
2446;SDS011;26430;48.818;9.244;2023-09-07T07:04:50;4.87;;;0.90;;
2446;SDS011;26430;48.818;9.244;2023-09-07T07:07:16;4.87;;;0.90;;
2446;SDS011;26430;48.818;9.244;2023-09-07T07:09:42;4.88;;;0.90;;
2446;SDS011;26430;48.818;9.244;2023-09-07T07:12:08;4.83;;;0.90;;
2446;SDS011;26430;48.818;9.244;2023-09-07T07:14:34;4.80;;;0.90;;
2446;SDS011;26430;48.818;9.244;2023-09-07T07:16:59;4.80;;;0.80;;
2446;SDS011;26430;48.818;9.244;2023-09-07T07:19:28;4.90;;;1.00;;
2446;SDS011;26430;48.818;9.244;2023-09-07T07:21:54;4.87;;;0.90;;
2446;SDS011;26430;48.818;9.244;2023-09-07T07:24:19;4.87;;;0.90;;
2446;SDS011;26430;48.818;9.244;2023-09-07T07:26:45;4.80;;;0.90;;
2446;SDS011;26430;48.818;9.244;2023-09-07T07:29:11;4.80;;;0.90;;
2446;SDS011;26430;48.818;9.244;2023-09-07T07:31:37;4.80;;;0.90;;
2446;SDS011;26430;48.818;9.244;2023-09-07T07:34:03;4.82;;;0.90;;
2446;SDS011;26430;48.818;9.244;2023-09-07T07:36:29;4.80;;;0.90;;
2446;SDS011;26430;48.818;9.244;2023-09-07T07:38:54;4.80;;;0.90;;
2446;SDS011;26430;48.818;9.244;2023-09-07T07:41:20;4.80;;;0.90;;
2446;SDS011;26430;48.818;9.244;2023-09-07T07:43:46;4.87;;;1.00;;
2446;SDS011;26430;48.818;9.244;2023-09-07T07:46:11;4.80;;;0.90;;
2446;SDS011;26430;48.818;9.244;2023-09-07T07:48:40;4.80;;;0.88;;
2446;SDS011;26430;48.818;9.244;2023-09-07T07:51:06;4.80;;;0.80;;
2446;SDS011;26430;48.818;9.244;2023-09-07T07:53:33;4.80;;;0.90;;
2446;SDS011;26430;48.818;9.244;2023-09-07T07:55:59;4.80;;;0.90;;
2446;SDS011;26430;48.818;9.244;2023-09-07T07:58:25;4.80;;;0.90;;
2446;SDS011;26430;48.818;9.244;2023-09-07T08:00:51;4.80;;;1.00;;
2446;SDS011;26430;48.818;9.244;2023-09-07T08:03:17;4.83;;;0.90;;
2446;SDS011;26430;48.818;9.244;2023-09-07T08:05:42;4.80;;;0.90;;
2446;SDS011;26430;48.818;9.244;2023-09-07T08:08:08;4.80;;;1.00;;
2446;SDS011;26430;48.818;9.244;2023-09-07T08:10:36;4.80;;;1.00;;
2446;SDS011;26430;48.818;9.244;2023-09-07T08:13:02;4.78;;;0.90;;
2446;SDS011;26430;48.818;9.244;2023-09-07T08:15:29;4.80;;;0.90;;
2446;SDS011;26430;48.818;9.244;2023-09-07T08:17:54;4.77;;;0.90;;
2446;SDS011;26430;48.818;9.244;2023-09-07T08:20:21;4.80;;;0.95;;
2446;SDS011;26430;48.818;9.244;2023-09-07T08:22:46;4.80;;;0.90;;
2446;SDS011;26430;48.818;9.244;2023-09-07T08:25:12;4.73;;;0.90;;
2446;SDS011;26430;48.818;9.244;2023-09-07T08:27:40;4.75;;;0.80;;
2446;SDS011;26430;48.818;9.244;2023-09-07T08:30:09;4.78;;;0.90;;
2446;SDS011;26430;48.818;9.244;2023-09-07T08:32:36;4.80;;;0.90;;
2446;SDS011;26430;48.818;9.244;2023-09-07T08:35:03;4.80;;;1.00;;
2446;SDS011;26430;48.818;9.244;2023-09-07T08:37:31;4.82;;;0.95;;
2446;SDS011;26430;48.818;9.244;2023-09-07T08:39:58;4.80;;;0.90;;
2446;SDS011;26430;48.818;9.244;2023-09-07T08:42:24;4.72;;;0.90;;
2446;SDS011;26430;48.818;9.244;2023-09-07T08:44:50;4.80;;;0.90;;
2446;SDS011;26430;48.818;9.244;2023-09-07T08:47:18;4.80;;;1.00;;
2446;SDS011;26430;48.818;9.244;2023-09-07T08:49:44;4.75;;;0.88;;
2446;SDS011;26430;48.818;9.244;2023-09-07T08:52:12;4.78;;;0.90;;
2446;SDS011;26430;48.818;9.244;2023-09-07T08:54:41;4.78;;;0.90;;
2446;SDS011;26430;48.818;9.244;2023-09-07T08:57:07;4.78;;;0.90;;
2446;SDS011;26430;48.818;9.244;2023-09-07T08:59:35;4.75;;;0.80;;
2446;SDS011;26430;48.818;9.244;2023-09-07T09:02:02;4.75;;;0.82;;
2446;SDS011;26430;48.818;9.244;2023-09-07T09:04:30;4.78;;;0.98;;
2446;SDS011;26430;48.818;9.244;2023-09-07T09:06:56;4.80;;;0.90;;
2446;SDS011;26430;48.818;9.244;2023-09-07T09:09:22;4.80;;;1.00;;
2446;SDS011;26430;48.818;9.244;2023-09-07T09:11:49;4.80;;;1.00;;
2446;SDS011;26430;48.818;9.244;2023-09-07T09:14:18;4.73;;;0.80;;
2446;SDS011;26430;48.818;9.244;2023-09-07T09:16:51;4.78;;;0.90;;
2446;SDS011;26430;48.818;9.244;2023-09-07T09:19:16;4.80;;;0.90;;
2446;SDS011;26430;48.818;9.244;2023-09-07T09:21:44;4.72;;;0.80;;
2446;SDS011;26430;48.818;9.244;2023-09-07T09:24:10;4.78;;;0.90;;
2446;SDS011;26430;48.818;9.244;2023-09-07T09:26:36;5.30;;;1.55;;
2446;SDS011;26430;48.818;9.244;2023-09-07T09:29:02;4.72;;;0.90;;
2446;SDS011;26430;48.818;9.244;2023-09-07T09:31:28;4.73;;;0.90;;
2446;SDS011;26430;48.818;9.244;2023-09-07T09:33:55;4.75;;;0.90;;
2446;SDS011;26430;48.818;9.244;2023-09-07T09:36:21;4.73;;;0.83;;
2446;SDS011;26430;48.818;9.244;2023-09-07T09:38:47;4.78;;;0.90;;
2446;SDS011;26430;48.818;9.244;2023-09-07T09:41:18;4.85;;;1.02;;
2446;SDS011;26430;48.818;9.244;2023-09-07T09:43:45;4.75;;;0.90;;
2446;SDS011;26430;48.818;9.244;2023-09-07T09:46:14;4.75;;;0.90;;
2446;SDS011;26430;48.818;9.244;2023-09-07T09:48:40;4.78;;;0.90;;
2446;SDS011;26430;48.818;9.244;2023-09-07T09:51:07;4.80;;;1.00;;
2446;SDS011;26430;48.818;9.244;2023-09-07T09:53:33;4.77;;;0.90;;
2446;SDS011;26430;48.818;9.244;2023-09-07T09:55:59;4.70;;;1.00;;
2446;SDS011;26430;48.818;9.244;2023-09-07T09:58:25;4.60;;;1.00;;
2446;SDS011;26430;48.818;9.244;2023-09-07T10:00:53;4.67;;;0.90;;
2446;SDS011;26430;48.818;9.244;2023-09-07T10:05:53;4.90;;;1.50;;
2446;SDS011;26430;48.818;9.244;2023-09-07T10:08:20;4.70;;;0.90;;
2446;SDS011;26430;48.818;9.244;2023-09-07T10:10:48;4.70;;;0.90;;
2446;SDS011;26430;48.818;9.244;2023-09-07T10:13:28;4.90;;;1.30;;
2446;SDS011;26430;48.818;9.244;2023-09-07T10:16:05;4.67;;;0.90;;
2446;SDS011;26430;48.818;9.244;2023-09-07T10:18:38;4.60;;;1.00;;
2446;SDS011;26430;48.818;9.244;2023-09-07T10:21:04;4.60;;;0.90;;
2446;SDS011;26430;48.818;9.244;2023-09-07T10:23:34;4.60;;;0.90;;
2446;SDS011;26430;48.818;9.244;2023-09-07T10:26:02;4.60;;;0.90;;
2446;SDS011;26430;48.818;9.244;2023-09-07T10:28:29;4.60;;;0.90;;
2446;SDS011;26430;48.818;9.244;2023-09-07T10:31:05;4.50;;;0.90;;
2446;SDS011;26430;48.818;9.244;2023-09-07T10:33:32;4.63;;;0.90;;
2446;SDS011;26430;48.818;9.244;2023-09-07T10:35:59;4.53;;;0.90;;
2446;SDS011;26430;48.818;9.244;2023-09-07T10:38:25;4.57;;;0.90;;
2446;SDS011;26430;48.818;9.244;2023-09-07T10:40:57;4.60;;;1.00;;
2446;SDS011;26430;48.818;9.244;2023-09-07T10:43:30;4.50;;;0.90;;
2446;SDS011;26430;48.818;9.244;2023-09-07T10:45:58;4.57;;;0.90;;
2446;SDS011;26430;48.818;9.244;2023-09-07T10:48:25;4.57;;;0.90;;
2446;SDS011;26430;48.818;9.244;2023-09-07T10:50:53;4.50;;;0.90;;
2446;SDS011;26430;48.818;9.244;2023-09-07T10:53:26;4.50;;;0.90;;
2446;SDS011;26430;48.818;9.244;2023-09-07T10:55:52;4.53;;;0.90;;
2446;SDS011;26430;48.818;9.244;2023-09-07T10:58:26;4.50;;;0.90;;
2446;SDS011;26430;48.818;9.244;2023-09-07T11:00:53;4.53;;;0.90;;
2446;SDS011;26430;48.818;9.244;2023-09-07T11:03:19;4.80;;;0.88;;
2446;SDS011;26430;48.818;9.244;2023-09-07T11:05:45;4.53;;;0.90;;
2446;SDS011;26430;48.818;9.244;2023-09-07T11:08:11;4.50;;;0.90;;
2446;SDS011;26430;48.818;9.244;2023-09-07T11:10:37;4.53;;;0.90;;
2446;SDS011;26430;48.818;9.244;2023-09-07T11:13:03;4.50;;;0.90;;
2446;SDS011;26430;48.818;9.244;2023-09-07T11:15:30;4.50;;;0.90;;
2446;SDS011;26430;48.818;9.244;2023-09-07T11:17:57;4.50;;;0.90;;
2446;SDS011;26430;48.818;9.244;2023-09-07T11:20:23;4.50;;;0.90;;
2446;SDS011;26430;48.818;9.244;2023-09-07T11:22:49;4.53;;;0.90;;
2446;SDS011;26430;48.818;9.244;2023-09-07T11:25:15;4.80;;;1.17;;
2446;SDS011;26430;48.818;9.244;2023-09-07T11:27:41;4.57;;;0.90;;
2446;SDS011;26430;48.818;9.244;2023-09-07T11:30:06;4.53;;;0.90;;
2446;SDS011;26430;48.818;9.244;2023-09-07T11:32:36;4.53;;;0.90;;
2446;SDS011;26430;48.818;9.244;2023-09-07T11:35:03;4.53;;;1.00;;
2446;SDS011;26430;48.818;9.244;2023-09-07T11:37:32;4.57;;;0.90;;
2446;SDS011;26430;48.818;9.244;2023-09-07T11:39:58;4.80;;;1.30;;
2446;SDS011;26430;48.818;9.244;2023-09-07T11:42:24;4.57;;;0.90;;
2446;SDS011;26430;48.818;9.244;2023-09-07T11:44:49;4.50;;;0.90;;
2446;SDS011;26430;48.818;9.244;2023-09-07T11:47:15;4.50;;;0.87;;
2446;SDS011;26430;48.818;9.244;2023-09-07T11:49:41;4.57;;;0.90;;
2446;SDS011;26430;48.818;9.244;2023-09-07T11:52:06;4.63;;;1.13;;
2446;SDS011;26430;48.818;9.244;2023-09-07T11:54:32;4.73;;;1.73;;
2446;SDS011;26430;48.818;9.244;2023-09-07T11:56:58;4.60;;;1.00;;
2446;SDS011;26430;48.818;9.244;2023-09-07T11:59:23;4.50;;;0.90;;
2446;SDS011;26430;48.818;9.244;2023-09-07T12:01:49;4.60;;;0.90;;
2446;SDS011;26430;48.818;9.244;2023-09-07T12:04:15;4.57;;;0.90;;
2446;SDS011;26430;48.818;9.244;2023-09-07T12:06:40;4.53;;;0.90;;
2446;SDS011;26430;48.818;9.244;2023-09-07T12:09:06;4.57;;;1.00;;
2446;SDS011;26430;48.818;9.244;2023-09-07T12:11:34;4.53;;;0.87;;
2446;SDS011;26430;48.818;9.244;2023-09-07T12:14:00;4.53;;;0.90;;
2446;SDS011;26430;48.818;9.244;2023-09-07T12:16:26;4.57;;;0.90;;
2446;SDS011;26430;48.818;9.244;2023-09-07T12:18:52;4.50;;;0.90;;
2446;SDS011;26430;48.818;9.244;2023-09-07T12:21:18;4.53;;;0.90;;
2446;SDS011;26430;48.818;9.244;2023-09-07T12:23:44;4.53;;;0.90;;
2446;SDS011;26430;48.818;9.244;2023-09-07T12:26:10;4.50;;;0.90;;
2446;SDS011;26430;48.818;9.244;2023-09-07T12:28:36;4.53;;;0.90;;
2446;SDS011;26430;48.818;9.244;2023-09-07T12:31:02;4.57;;;0.90;;
2446;SDS011;26430;48.818;9.244;2023-09-07T12:33:27;4.50;;;0.90;;
2446;SDS011;26430;48.818;9.244;2023-09-07T12:35:55;4.50;;;0.90;;
2446;SDS011;26430;48.818;9.244;2023-09-07T12:38:21;4.50;;;0.90;;
2446;SDS011;26430;48.818;9.244;2023-09-07T12:40:52;4.57;;;0.97;;
2446;SDS011;26430;48.818;9.244;2023-09-07T12:43:18;4.50;;;0.90;;
2446;SDS011;26430;48.818;9.244;2023-09-07T12:45:45;4.57;;;0.90;;
2446;SDS011;26430;48.818;9.244;2023-09-07T12:48:11;4.50;;;0.90;;
2446;SDS011;26430;48.818;9.244;2023-09-07T12:50:36;4.57;;;1.00;;
2446;SDS011;26430;48.818;9.244;2023-09-07T12:53:02;4.57;;;1.00;;
2446;SDS011;26430;48.818;9.244;2023-09-07T12:55:27;4.53;;;0.80;;
2446;SDS011;26430;48.818;9.244;2023-09-07T12:57:54;4.53;;;0.90;;
2446;SDS011;26430;48.818;9.244;2023-09-07T13:00:20;4.60;;;1.00;;
2446;SDS011;26430;48.818;9.244;2023-09-07T13:02:46;4.53;;;0.90;;
2446;SDS011;26430;48.818;9.244;2023-09-07T13:05:12;4.53;;;0.90;;
2446;SDS011;26430;48.818;9.244;2023-09-07T13:07:37;4.57;;;0.90;;
2446;SDS011;26430;48.818;9.244;2023-09-07T13:10:04;4.50;;;0.90;;
2446;SDS011;26430;48.818;9.244;2023-09-07T13:12:33;4.50;;;0.90;;
2446;SDS011;26430;48.818;9.244;2023-09-07T13:14:59;4.60;;;0.90;;
2446;SDS011;26430;48.818;9.244;2023-09-07T13:17:24;4.57;;;0.90;;
2446;SDS011;26430;48.818;9.244;2023-09-07T13:19:50;4.53;;;0.90;;
2446;SDS011;26430;48.818;9.244;2023-09-07T13:22:16;4.53;;;0.90;;
2446;SDS011;26430;48.818;9.244;2023-09-07T13:24:42;4.50;;;0.90;;
2446;SDS011;26430;48.818;9.244;2023-09-07T13:27:07;4.90;;;2.27;;
2446;SDS011;26430;48.818;9.244;2023-09-07T13:29:35;4.60;;;1.17;;
2446;SDS011;26430;48.818;9.244;2023-09-07T13:32:00;4.53;;;0.83;;
2446;SDS011;26430;48.818;9.244;2023-09-07T13:34:26;4.57;;;0.90;;
2446;SDS011;26430;48.818;9.244;2023-09-07T13:36:52;4.53;;;0.90;;
2446;SDS011;26430;48.818;9.244;2023-09-07T13:39:18;4.60;;;0.90;;
2446;SDS011;26430;48.818;9.244;2023-09-07T13:41:44;4.53;;;0.90;;
2446;SDS011;26430;48.818;9.244;2023-09-07T13:44:09;4.50;;;0.80;;
2446;SDS011;26430;48.818;9.244;2023-09-07T13:46:36;4.53;;;0.90;;
2446;SDS011;26430;48.818;9.244;2023-09-07T13:49:02;4.53;;;0.90;;
2446;SDS011;26430;48.818;9.244;2023-09-07T13:51:27;4.50;;;0.90;;
2446;SDS011;26430;48.818;9.244;2023-09-07T13:53:53;4.50;;;0.90;;
2446;SDS011;26430;48.818;9.244;2023-09-07T13:56:18;4.50;;;0.87;;
2446;SDS011;26430;48.818;9.244;2023-09-07T13:58:44;4.50;;;0.90;;
2446;SDS011;26430;48.818;9.244;2023-09-07T14:01:09;4.53;;;0.90;;
2446;SDS011;26430;48.818;9.244;2023-09-07T14:03:35;4.53;;;0.90;;
2446;SDS011;26430;48.818;9.244;2023-09-07T14:06:01;4.53;;;0.90;;
2446;SDS011;26430;48.818;9.244;2023-09-07T14:08:27;4.53;;;0.90;;
2446;SDS011;26430;48.818;9.244;2023-09-07T14:10:53;4.53;;;0.83;;
2446;SDS011;26430;48.818;9.244;2023-09-07T14:13:18;4.53;;;1.00;;
2446;SDS011;26430;48.818;9.244;2023-09-07T14:15:44;4.50;;;0.83;;
2446;SDS011;26430;48.818;9.244;2023-09-07T14:18:10;4.53;;;0.90;;
2446;SDS011;26430;48.818;9.244;2023-09-07T14:20:36;4.57;;;0.90;;
2446;SDS011;26430;48.818;9.244;2023-09-07T14:23:02;4.57;;;0.90;;
2446;SDS011;26430;48.818;9.244;2023-09-07T14:25:28;4.60;;;1.00;;
2446;SDS011;26430;48.818;9.244;2023-09-07T14:27:53;4.50;;;0.90;;
2446;SDS011;26430;48.818;9.244;2023-09-07T14:30:19;4.50;;;0.83;;
2446;SDS011;26430;48.818;9.244;2023-09-07T14:32:44;4.50;;;0.90;;
2446;SDS011;26430;48.818;9.244;2023-09-07T14:35:14;4.50;;;0.90;;
2446;SDS011;26430;48.818;9.244;2023-09-07T14:37:40;4.60;;;0.90;;
2446;SDS011;26430;48.818;9.244;2023-09-07T14:40:06;4.50;;;0.87;;
2446;SDS011;26430;48.818;9.244;2023-09-07T14:42:32;4.50;;;0.90;;
2446;SDS011;26430;48.818;9.244;2023-09-07T14:45:01;4.50;;;0.90;;
2446;SDS011;26430;48.818;9.244;2023-09-07T14:47:28;4.50;;;0.80;;
2446;SDS011;26430;48.818;9.244;2023-09-07T14:49:54;4.50;;;0.87;;
2446;SDS011;26430;48.818;9.244;2023-09-07T14:52:19;4.57;;;0.93;;
2446;SDS011;26430;48.818;9.244;2023-09-07T14:54:49;4.50;;;0.90;;
2446;SDS011;26430;48.818;9.244;2023-09-07T14:57:14;4.57;;;0.90;;
2446;SDS011;26430;48.818;9.244;2023-09-07T14:59:40;4.53;;;0.80;;